createdAt,value
2022-10-22T00:00:23.956Z,21.82
2022-10-22T00:01:28.192Z,21.82
2022-10-22T00:02:32.501Z,21.8
2022-10-22T00:03:36.942Z,21.8
2022-10-22T00:04:41.450Z,21.79
2022-10-22T00:05:45.788Z,21.8
2022-10-22T00:06:50.071Z,21.79
2022-10-22T00:07:54.339Z,21.8
2022-10-22T00:08:58.859Z,21.81
2022-10-22T00:10:03.415Z,21.79
2022-10-22T00:11:07.693Z,21.79
2022-10-22T00:12:11.973Z,21.79
2022-10-22T00:13:16.263Z,21.81
2022-10-22T00:14:20.591Z,21.79
2022-10-22T00:15:24.847Z,21.81
2022-10-22T00:16:29.094Z,21.78
2022-10-22T00:17:33.358Z,21.78
2022-10-22T00:18:37.642Z,21.78
2022-10-22T00:19:41.902Z,21.78
2022-10-22T00:20:46.157Z,21.78
2022-10-22T00:21:50.446Z,21.77
2022-10-22T00:22:54.741Z,21.78
2022-10-22T00:23:59.034Z,21.76
2022-10-22T00:25:03.301Z,21.79
2022-10-22T00:26:07.556Z,21.8
2022-10-22T00:27:11.935Z,21.8
2022-10-22T00:28:16.200Z,21.78
2022-10-22T00:29:20.477Z,21.8
2022-10-22T00:30:24.742Z,21.79
2022-10-22T00:31:29.012Z,21.76
2022-10-22T00:32:33.271Z,21.78
2022-10-22T00:33:37.555Z,21.75
2022-10-22T00:34:41.834Z,21.77
2022-10-22T00:35:46.090Z,21.78
2022-10-22T00:36:50.769Z,21.77
2022-10-22T00:37:55.025Z,21.78
2022-10-22T00:38:59.275Z,21.77
2022-10-22T00:40:03.560Z,21.77
2022-10-22T00:41:07.882Z,21.76
2022-10-22T00:42:12.155Z,21.75
2022-10-22T00:43:16.418Z,21.76
2022-10-22T00:44:20.683Z,21.77
2022-10-22T00:45:25.002Z,21.78
2022-10-22T00:46:29.299Z,21.79
2022-10-22T00:47:33.537Z,21.77
2022-10-22T00:48:37.801Z,21.74
2022-10-22T00:49:42.123Z,21.75
2022-10-22T00:50:46.385Z,21.75
2022-10-22T00:51:50.901Z,21.76
2022-10-22T00:52:55.165Z,21.76
2022-10-22T00:53:59.402Z,21.77
2022-10-22T00:55:03.656Z,21.75
2022-10-22T00:56:07.993Z,21.74
2022-10-22T00:57:12.784Z,21.73
2022-10-22T00:58:17.038Z,21.73
2022-10-22T00:59:21.293Z,21.73
2022-10-22T01:00:25.549Z,21.73
2022-10-22T01:01:29.805Z,21.75
2022-10-22T01:02:34.086Z,21.74
2022-10-22T01:03:38.348Z,21.74
2022-10-22T01:04:42.608Z,21.73
2022-10-22T01:05:46.891Z,21.74
2022-10-22T01:06:51.675Z,21.75
2022-10-22T01:07:56.009Z,21.74
2022-10-22T01:09:00.500Z,21.73
2022-10-22T01:10:05.095Z,21.72
2022-10-22T01:11:09.404Z,21.73
2022-10-22T01:12:13.673Z,21.72
2022-10-22T01:13:17.975Z,21.73
2022-10-22T01:14:22.269Z,21.71
2022-10-22T01:15:26.531Z,21.72
2022-10-22T01:16:30.775Z,21.74
2022-10-22T01:17:35.020Z,21.74
2022-10-22T01:18:39.629Z,21.74
2022-10-22T01:19:43.878Z,21.72
2022-10-22T01:20:48.166Z,21.71
2022-10-22T01:21:52.412Z,21.7
2022-10-22T01:22:56.992Z,21.7
2022-10-22T01:24:01.259Z,21.71
2022-10-22T01:25:05.525Z,21.72
2022-10-22T01:26:09.822Z,21.71
2022-10-22T01:27:14.350Z,21.72
2022-10-22T01:28:18.633Z,21.71
2022-10-22T01:29:22.911Z,21.71
2022-10-22T01:30:27.236Z,21.7
2022-10-22T01:31:31.493Z,21.71
2022-10-22T01:32:35.753Z,21.73
2022-10-22T01:33:40.022Z,21.73
2022-10-22T01:34:44.280Z,21.72
2022-10-22T01:35:48.754Z,21.72
2022-10-22T01:36:52.984Z,21.72
2022-10-22T01:37:57.234Z,21.7
2022-10-22T01:39:01.608Z,21.69
2022-10-22T01:40:05.857Z,21.7
2022-10-22T01:41:10.206Z,21.7
2022-10-22T01:42:14.489Z,21.71
2022-10-22T01:43:18.793Z,21.72
2022-10-22T01:44:23.051Z,21.71
2022-10-22T01:45:27.582Z,21.69
2022-10-22T01:46:31.889Z,21.7
2022-10-22T01:47:36.136Z,21.7
2022-10-22T01:48:41.202Z,21.68
2022-10-22T01:49:45.470Z,21.67
2022-10-22T01:50:49.908Z,21.68
2022-10-22T01:51:54.250Z,21.67
2022-10-22T01:52:58.513Z,21.66
2022-10-22T01:54:02.767Z,21.65
2022-10-22T01:55:07.012Z,21.66
2022-10-22T01:56:11.283Z,21.69
2022-10-22T01:57:15.542Z,21.7
2022-10-22T01:58:19.801Z,21.7
2022-10-22T01:59:24.040Z,21.68
2022-10-22T02:00:28.411Z,21.67
2022-10-22T02:01:32.944Z,21.67
2022-10-22T02:02:37.282Z,21.67
2022-10-22T02:03:41.904Z,21.67
2022-10-22T02:04:46.169Z,21.67
2022-10-22T02:05:50.923Z,21.7
2022-10-22T02:06:55.201Z,21.67
2022-10-22T02:07:59.515Z,21.65
2022-10-22T02:09:03.898Z,21.67
2022-10-22T02:10:08.410Z,21.67
2022-10-22T02:11:13.127Z,21.67
2022-10-22T02:12:17.535Z,21.66
2022-10-22T02:13:21.833Z,21.66
2022-10-22T02:14:26.111Z,21.66
2022-10-22T02:15:30.413Z,21.67
2022-10-22T02:16:34.693Z,21.67
2022-10-22T02:17:38.943Z,21.66
2022-10-22T02:18:43.233Z,21.65
2022-10-22T02:19:47.509Z,21.65
2022-10-22T02:20:51.920Z,21.63
2022-10-22T02:21:56.169Z,21.63
2022-10-22T02:23:00.427Z,21.64
2022-10-22T02:24:04.684Z,21.65
2022-10-22T02:25:08.980Z,21.63
2022-10-22T02:26:13.224Z,21.63
2022-10-22T02:27:17.498Z,21.66
2022-10-22T02:28:29.480Z,21.65
2022-10-22T02:29:33.782Z,21.62
2022-10-22T02:30:38.039Z,21.63
2022-10-22T02:31:43.338Z,21.63
2022-10-22T02:32:47.599Z,21.61
2022-10-22T02:33:51.874Z,21.63
2022-10-22T02:34:56.202Z,21.62
2022-10-22T02:36:00.487Z,21.64
2022-10-22T02:37:04.742Z,21.62
2022-10-22T02:38:09.020Z,21.63
2022-10-22T02:39:13.370Z,21.65
2022-10-22T02:40:17.668Z,21.65
2022-10-22T02:41:21.933Z,21.64
2022-10-22T02:42:26.226Z,21.63
2022-10-22T02:43:30.493Z,21.65
2022-10-22T02:44:34.753Z,21.62
2022-10-22T02:45:39.112Z,21.61
2022-10-22T02:46:43.421Z,21.61
2022-10-22T02:47:47.677Z,21.63
2022-10-22T02:48:51.931Z,21.66
2022-10-22T02:49:57.223Z,21.62
2022-10-22T02:51:01.512Z,21.62
2022-10-22T02:52:05.818Z,21.61
2022-10-22T02:53:10.096Z,21.6
2022-10-22T02:54:14.327Z,21.58
2022-10-22T02:55:18.583Z,21.59
2022-10-22T02:56:22.882Z,21.6
2022-10-22T02:57:27.181Z,21.59
2022-10-22T02:58:31.434Z,21.61
2022-10-22T02:59:35.678Z,21.62
2022-10-22T03:00:39.991Z,21.6
2022-10-22T03:01:44.557Z,21.61
2022-10-22T03:02:48.804Z,21.61
2022-10-22T03:03:53.082Z,21.6
2022-10-22T03:04:57.331Z,21.6
2022-10-22T03:06:01.615Z,21.59
2022-10-22T03:07:05.876Z,21.6
2022-10-22T03:08:10.126Z,21.59
2022-10-22T03:09:14.396Z,21.57
2022-10-22T03:10:22.300Z,21.56
2022-10-22T03:11:26.574Z,21.56
2022-10-22T03:12:30.839Z,21.57
2022-10-22T03:13:35.103Z,21.56
2022-10-22T03:14:39.379Z,21.58
2022-10-22T03:15:43.629Z,21.6
2022-10-22T03:16:48.011Z,21.57
2022-10-22T03:17:52.246Z,21.59
2022-10-22T03:18:56.526Z,21.58
2022-10-22T03:20:00.863Z,21.58
2022-10-22T03:21:05.125Z,21.6
2022-10-22T03:22:09.374Z,21.6
2022-10-22T03:23:13.645Z,21.6
2022-10-22T03:24:17.928Z,21.62
2022-10-22T03:25:22.200Z,21.58
2022-10-22T03:26:26.467Z,21.58
2022-10-22T03:27:30.740Z,21.59
2022-10-22T03:28:35.025Z,21.6
2022-10-22T03:29:39.279Z,21.61
2022-10-22T03:30:43.543Z,21.6
2022-10-22T03:31:47.844Z,21.59
2022-10-22T03:32:52.108Z,21.6
2022-10-22T03:33:56.398Z,21.58
2022-10-22T03:36:05.091Z,21.57
2022-10-22T03:37:09.369Z,21.57
2022-10-22T03:38:13.642Z,21.57
2022-10-22T03:39:17.889Z,21.59
2022-10-22T03:40:22.147Z,21.57
2022-10-22T03:41:26.414Z,21.59
2022-10-22T03:42:30.736Z,21.56
2022-10-22T03:43:34.988Z,21.6
2022-10-22T03:44:39.262Z,21.56
2022-10-22T03:45:43.627Z,21.56
2022-10-22T03:46:47.904Z,21.57
2022-10-22T03:47:52.211Z,21.55
2022-10-22T03:48:56.461Z,21.54
2022-10-22T03:50:00.793Z,21.53
2022-10-22T03:51:05.091Z,21.55
2022-10-22T03:52:09.448Z,21.53
2022-10-22T03:53:13.686Z,21.53
2022-10-22T03:54:17.971Z,21.55
2022-10-22T03:55:22.278Z,21.54
2022-10-22T03:56:26.552Z,21.55
2022-10-22T03:57:30.842Z,21.54
2022-10-22T03:58:35.120Z,21.55
2022-10-22T03:59:39.389Z,21.52
2022-10-22T04:00:43.703Z,21.53
2022-10-22T04:01:48.232Z,21.52
2022-10-22T04:02:52.482Z,21.52
2022-10-22T04:03:56.726Z,21.54
2022-10-22T04:05:01.046Z,21.55
2022-10-22T04:06:05.667Z,21.57
2022-10-22T04:07:09.931Z,21.6
2022-10-22T04:08:14.236Z,21.66
2022-10-22T04:09:18.554Z,21.71
2022-10-22T04:10:22.915Z,21.77
2022-10-22T04:11:27.196Z,21.81
2022-10-22T04:12:31.458Z,21.86
2022-10-22T04:13:35.754Z,21.87
2022-10-22T04:14:40.027Z,21.9
2022-10-22T04:16:50.114Z,21.95
2022-10-22T04:17:54.369Z,21.96
2022-10-22T04:18:58.715Z,22
2022-10-22T04:20:02.959Z,22.03
2022-10-22T04:21:07.240Z,22.07
2022-10-22T04:22:11.527Z,22.07
2022-10-22T04:23:15.795Z,22.11
2022-10-22T04:24:20.039Z,22.15
2022-10-22T04:25:24.310Z,22.18
2022-10-22T04:26:28.558Z,22.19
2022-10-22T04:27:32.826Z,22.22
2022-10-22T04:28:37.092Z,22.24
2022-10-22T04:29:41.367Z,22.26
2022-10-22T04:30:45.622Z,22.29
2022-10-22T04:31:49.862Z,22.3
2022-10-22T04:32:54.119Z,22.32
2022-10-22T04:33:58.401Z,22.33
2022-10-22T04:35:02.669Z,22.3
2022-10-22T04:36:06.958Z,22.3
2022-10-22T04:37:11.304Z,22.28
2022-10-22T04:38:15.589Z,22.27
2022-10-22T04:39:19.952Z,22.26
2022-10-22T04:40:24.215Z,22.28
2022-10-22T04:41:28.462Z,22.31
2022-10-22T04:42:32.771Z,22.32
2022-10-22T04:43:37.015Z,22.34
2022-10-22T04:44:41.307Z,22.38
2022-10-22T04:45:45.639Z,22.39
2022-10-22T04:46:50.066Z,22.42
2022-10-22T04:47:54.355Z,22.46
2022-10-22T04:48:58.605Z,22.48
2022-10-22T04:50:02.917Z,22.5
2022-10-22T04:51:07.147Z,22.51
2022-10-22T04:52:11.439Z,22.51
2022-10-22T04:53:15.973Z,22.51
2022-10-22T04:54:20.216Z,22.51
2022-10-22T04:55:24.473Z,22.5
2022-10-22T04:56:28.934Z,22.46
2022-10-22T04:57:33.187Z,22.45
2022-10-22T04:58:37.457Z,22.43
2022-10-22T04:59:41.717Z,22.39
2022-10-22T05:00:45.977Z,22.37
2022-10-22T05:01:50.465Z,22.36
2022-10-22T05:02:54.713Z,22.34
2022-10-22T05:03:59.095Z,22.34
2022-10-22T05:05:05.741Z,22.33
2022-10-22T05:06:10.096Z,22.32
2022-10-22T05:07:15.399Z,22.31
2022-10-22T05:08:19.651Z,22.3
2022-10-22T05:09:23.915Z,22.3
2022-10-22T05:10:28.311Z,22.29
2022-10-22T05:11:32.572Z,22.27
2022-10-22T05:12:36.836Z,22.26
2022-10-22T05:13:41.092Z,22.26
2022-10-22T05:14:45.384Z,22.26
2022-10-22T05:15:49.687Z,22.24
2022-10-22T05:16:53.927Z,22.24
2022-10-22T05:17:58.187Z,22.24
2022-10-22T05:19:02.456Z,22.25
2022-10-22T05:20:06.701Z,22.25
2022-10-22T05:21:11.021Z,22.24
2022-10-22T05:22:15.324Z,22.28
2022-10-22T05:23:19.592Z,22.26
2022-10-22T05:24:24.144Z,22.29
2022-10-22T05:25:28.397Z,22.3
2022-10-22T05:26:32.632Z,22.32
2022-10-22T05:27:36.900Z,22.33
2022-10-22T05:28:41.815Z,22.34
2022-10-22T05:29:46.109Z,22.33
2022-10-22T05:30:50.367Z,22.31
2022-10-22T05:31:54.620Z,22.32
2022-10-22T05:33:01.417Z,22.32
2022-10-22T05:34:05.700Z,22.31
2022-10-22T05:35:09.978Z,22.3
2022-10-22T05:36:14.269Z,22.31
2022-10-22T05:37:18.505Z,22.3
2022-10-22T05:38:22.761Z,22.28
2022-10-22T05:39:27.018Z,22.26
2022-10-22T05:40:31.521Z,22.25
2022-10-22T05:41:36.590Z,22.25
2022-10-22T05:42:41.098Z,22.25
2022-10-22T05:43:45.949Z,22.24
2022-10-22T05:44:50.519Z,22.23
2022-10-22T05:45:54.762Z,22.23
2022-10-22T05:46:59.045Z,22.25
2022-10-22T05:48:03.279Z,22.29
2022-10-22T05:49:07.578Z,22.33
2022-10-22T05:50:11.865Z,22.38
2022-10-22T05:51:16.144Z,22.39
2022-10-22T05:52:20.398Z,22.41
2022-10-22T05:53:24.655Z,22.44
2022-10-22T05:54:28.924Z,22.48
2022-10-22T05:55:33.157Z,22.55
2022-10-22T05:56:37.405Z,22.52
2022-10-22T05:57:41.656Z,22.48
2022-10-22T05:58:45.897Z,22.41
2022-10-22T05:59:50.268Z,22.35
2022-10-22T06:00:54.526Z,22.3
2022-10-22T06:01:58.866Z,22.27
2022-10-22T06:03:03.266Z,22.23
2022-10-22T06:04:07.580Z,22.21
2022-10-22T06:05:11.842Z,22.19
2022-10-22T06:06:16.120Z,22.2
2022-10-22T06:07:20.407Z,22.26
2022-10-22T06:08:24.689Z,22.3
2022-10-22T06:09:28.980Z,22.34
2022-10-22T06:10:33.472Z,22.39
2022-10-22T06:11:37.736Z,22.39
2022-10-22T06:12:42.189Z,22.42
2022-10-22T06:13:46.776Z,22.4
2022-10-22T06:14:51.076Z,22.43
2022-10-22T06:15:55.325Z,22.44
2022-10-22T06:16:59.587Z,22.44
2022-10-22T06:18:03.859Z,22.45
2022-10-22T06:19:08.112Z,22.45
2022-10-22T06:20:12.404Z,22.45
2022-10-22T06:21:16.668Z,22.47
2022-10-22T06:22:20.911Z,22.48
2022-10-22T06:23:25.216Z,22.49
2022-10-22T06:24:29.485Z,22.49
2022-10-22T06:25:33.773Z,22.51
2022-10-22T06:26:38.052Z,22.51
2022-10-22T06:27:42.320Z,22.51
2022-10-22T06:28:46.596Z,22.52
2022-10-22T06:29:51.109Z,22.57
2022-10-22T06:30:55.384Z,22.56
2022-10-22T06:31:59.666Z,22.56
2022-10-22T06:33:03.938Z,22.54
2022-10-22T06:34:08.207Z,22.55
2022-10-22T06:35:12.457Z,22.61
2022-10-22T06:36:16.756Z,22.59
2022-10-22T06:37:21.029Z,22.58
2022-10-22T06:38:25.269Z,22.58
2022-10-22T06:39:29.540Z,22.56
2022-10-22T06:40:33.799Z,22.57
2022-10-22T06:41:38.062Z,22.6
2022-10-22T06:42:42.576Z,22.57
2022-10-22T06:43:47.287Z,22.58
2022-10-22T06:44:51.679Z,22.58
2022-10-22T06:45:56.082Z,22.58
2022-10-22T06:47:00.351Z,22.62
2022-10-22T06:48:04.622Z,22.61
2022-10-22T06:49:08.917Z,22.65
2022-10-22T06:50:13.174Z,22.64
2022-10-22T06:51:17.427Z,22.64
2022-10-22T06:52:21.733Z,22.64
2022-10-22T06:53:25.988Z,22.63
2022-10-22T06:54:30.253Z,22.66
2022-10-22T06:55:34.509Z,22.65
2022-10-22T06:56:38.969Z,22.68
2022-10-22T06:57:43.640Z,22.69
2022-10-22T06:58:48.046Z,22.69
2022-10-22T06:59:52.293Z,22.7
2022-10-22T07:00:56.597Z,22.71
2022-10-22T07:02:01.063Z,22.73
2022-10-22T07:03:05.539Z,22.76
2022-10-22T07:04:09.833Z,22.81
2022-10-22T07:05:14.095Z,22.88
2022-10-22T07:06:18.358Z,22.92
2022-10-22T07:07:22.624Z,22.99
2022-10-22T07:08:27.264Z,23.06
2022-10-22T07:09:31.529Z,23.08
2022-10-22T07:10:35.784Z,23.13
2022-10-22T07:11:40.166Z,23.16
2022-10-22T07:12:44.399Z,23.2
2022-10-22T07:13:51.671Z,23.22
2022-10-22T07:14:55.931Z,23.21
2022-10-22T07:16:00.204Z,23.24
2022-10-22T07:17:04.516Z,23.22
2022-10-22T07:18:08.823Z,23.25
2022-10-22T07:19:13.154Z,23.27
2022-10-22T07:20:17.418Z,23.27
2022-10-22T07:21:21.681Z,23.27
2022-10-22T07:22:25.979Z,23.25
2022-10-22T07:23:30.259Z,23.24
2022-10-22T07:24:34.520Z,23.25
2022-10-22T07:25:38.801Z,23.26
2022-10-22T07:26:43.060Z,23.25
2022-10-22T07:27:47.390Z,23.27
2022-10-22T07:28:51.919Z,23.26
2022-10-22T07:29:56.197Z,23.27
2022-10-22T07:31:00.505Z,23.25
2022-10-22T07:32:04.766Z,23.26
2022-10-22T07:33:09.064Z,23.25
2022-10-22T07:34:13.453Z,23.27
2022-10-22T07:35:17.871Z,23.28
2022-10-22T07:36:22.142Z,23.26
2022-10-22T07:37:28.677Z,23.27
2022-10-22T07:38:32.981Z,23.27
2022-10-22T07:39:37.246Z,23.25
2022-10-22T07:40:41.479Z,23.25
2022-10-22T07:41:45.773Z,23.26
2022-10-22T07:42:50.051Z,23.25
2022-10-22T07:43:54.356Z,23.23
2022-10-22T07:44:58.643Z,23.24
2022-10-22T07:46:02.924Z,23.23
2022-10-22T07:47:07.466Z,23.21
2022-10-22T07:48:11.724Z,23.24
2022-10-22T07:49:16.022Z,23.24
2022-10-22T07:50:20.293Z,23.22
2022-10-22T07:51:24.642Z,23.2
2022-10-22T07:52:28.915Z,23.23
2022-10-22T07:53:33.161Z,23.21
2022-10-22T07:54:37.464Z,23.13
2022-10-22T07:55:41.747Z,23.06
2022-10-22T07:56:46.003Z,22.95
2022-10-22T07:57:50.232Z,22.92
2022-10-22T07:58:54.599Z,22.98
2022-10-22T07:59:59.225Z,23
2022-10-22T08:01:03.603Z,23.03
2022-10-22T08:02:08.293Z,23.07
2022-10-22T08:03:12.564Z,23
2022-10-22T08:04:16.824Z,23.03
2022-10-22T08:05:21.211Z,23.05
2022-10-22T08:06:25.496Z,23.06
2022-10-22T08:07:29.778Z,23.09
2022-10-22T08:08:34.164Z,23.09
2022-10-22T08:09:38.597Z,23.11
2022-10-22T08:10:42.829Z,23.12
2022-10-22T08:11:47.120Z,23.13
2022-10-22T08:12:51.371Z,23.12
2022-10-22T08:13:55.606Z,23.13
2022-10-22T08:14:59.895Z,23.11
2022-10-22T08:16:04.243Z,23.16
2022-10-22T08:17:08.554Z,23.17
2022-10-22T08:18:12.994Z,23.19
2022-10-22T08:19:17.254Z,23.19
2022-10-22T08:20:21.515Z,23.17
2022-10-22T08:21:25.781Z,23.16
2022-10-22T08:22:30.086Z,23.17
2022-10-22T08:23:34.337Z,23.17
2022-10-22T08:24:38.643Z,23.2
2022-10-22T08:25:43.011Z,23.23
2022-10-22T08:26:47.285Z,23.27
2022-10-22T08:27:51.654Z,23.31
2022-10-22T08:28:55.962Z,23.37
2022-10-22T08:30:00.337Z,23.4
2022-10-22T08:31:04.747Z,23.45
2022-10-22T08:32:09.021Z,23.47
2022-10-22T08:33:13.319Z,23.51
2022-10-22T08:34:17.557Z,23.49
2022-10-22T08:35:21.825Z,23.52
2022-10-22T08:36:26.098Z,23.52
2022-10-22T08:37:30.392Z,23.52
2022-10-22T08:38:34.666Z,23.52
2022-10-22T08:39:38.913Z,23.54
2022-10-22T08:40:43.414Z,23.56
2022-10-22T08:41:47.833Z,23.55
2022-10-22T08:42:52.085Z,23.55
2022-10-22T08:43:56.350Z,23.56
2022-10-22T08:45:00.661Z,23.54
2022-10-22T08:46:04.914Z,23.54
2022-10-22T08:47:09.233Z,23.54
2022-10-22T08:48:13.483Z,23.53
2022-10-22T08:49:17.764Z,23.56
2022-10-22T08:50:22.057Z,23.54
2022-10-22T08:51:26.319Z,23.52
2022-10-22T08:52:30.664Z,23.53
2022-10-22T08:53:34.963Z,23.52
2022-10-22T08:54:39.238Z,23.51
2022-10-22T08:55:43.536Z,23.51
2022-10-22T08:56:47.822Z,23.51
2022-10-22T08:57:52.537Z,23.51
2022-10-22T08:58:57.049Z,23.5
2022-10-22T09:00:01.318Z,23.49
2022-10-22T09:01:05.642Z,23.51
2022-10-22T09:02:09.950Z,23.49
2022-10-22T09:03:14.266Z,23.48
2022-10-22T09:04:18.550Z,23.48
2022-10-22T09:05:22.812Z,23.46
2022-10-22T09:06:27.056Z,23.46
2022-10-22T09:07:31.322Z,23.48
2022-10-22T09:08:35.650Z,23.48
2022-10-22T09:09:40.112Z,23.49
2022-10-22T09:10:44.380Z,23.45
2022-10-22T09:11:49.646Z,23.46
2022-10-22T09:12:53.953Z,23.44
2022-10-22T09:13:58.514Z,23.44
2022-10-22T09:15:02.786Z,23.44
2022-10-22T09:16:07.072Z,23.44
2022-10-22T09:17:11.343Z,23.45
2022-10-22T09:18:15.656Z,23.46
2022-10-22T09:19:19.959Z,23.47
2022-10-22T09:20:24.222Z,23.46
2022-10-22T09:21:28.805Z,23.46
2022-10-22T09:23:38.347Z,23.46
2022-10-22T09:24:42.665Z,23.45
2022-10-22T09:25:46.940Z,23.47
2022-10-22T09:26:51.767Z,23.46
2022-10-22T09:27:56.079Z,23.47
2022-10-22T09:29:00.341Z,23.48
2022-10-22T09:30:04.623Z,23.45
2022-10-22T09:31:08.883Z,23.45
2022-10-22T09:32:13.165Z,23.46
2022-10-22T09:33:20.164Z,23.47
2022-10-22T09:34:28.156Z,23.47
2022-10-22T09:35:32.429Z,23.46
2022-10-22T09:36:36.776Z,23.47
2022-10-22T09:37:41.054Z,23.47
2022-10-22T09:38:45.328Z,23.45
2022-10-22T09:39:49.599Z,23.45
2022-10-22T09:40:53.909Z,23.43
2022-10-22T09:41:58.172Z,23.43
2022-10-22T09:43:02.427Z,23.44
2022-10-22T09:44:06.970Z,23.42
2022-10-22T09:45:11.252Z,23.42
2022-10-22T09:46:15.526Z,23.42
2022-10-22T09:47:19.778Z,23.42
2022-10-22T09:48:39.695Z,23.41
2022-10-22T09:49:43.952Z,23.41
2022-10-22T09:50:48.330Z,23.4
2022-10-22T09:51:52.608Z,23.41
2022-10-22T09:52:56.961Z,23.39
2022-10-22T09:54:01.219Z,23.4
2022-10-22T09:55:05.461Z,23.41
2022-10-22T09:56:09.729Z,23.41
2022-10-22T09:57:14.040Z,23.41
2022-10-22T09:58:18.314Z,23.42
2022-10-22T09:59:22.593Z,23.43
2022-10-22T10:00:26.899Z,23.43
2022-10-22T10:01:31.206Z,23.44
2022-10-22T10:02:39.130Z,23.43
2022-10-22T10:03:43.471Z,23.42
2022-10-22T10:04:47.745Z,23.41
2022-10-22T10:05:52.100Z,23.41
2022-10-22T10:06:58.657Z,23.41
2022-10-22T10:08:03.033Z,23.42
2022-10-22T10:09:07.355Z,23.42
2022-10-22T10:10:11.862Z,23.44
2022-10-22T10:11:16.134Z,23.46
2022-10-22T10:12:20.417Z,23.48
2022-10-22T10:13:24.690Z,23.52
2022-10-22T10:14:28.981Z,23.55
2022-10-22T10:15:33.220Z,23.49
2022-10-22T10:16:37.480Z,23.46
2022-10-22T10:17:41.924Z,23.44
2022-10-22T10:18:47.375Z,23.49
2022-10-22T10:19:51.636Z,23.51
2022-10-22T10:20:55.896Z,23.53
2022-10-22T10:22:00.182Z,23.54
2022-10-22T10:23:04.458Z,23.55
2022-10-22T10:24:11.695Z,23.54
2022-10-22T10:25:16.004Z,23.55
2022-10-22T10:26:20.293Z,23.56
2022-10-22T10:27:24.548Z,23.53
2022-10-22T10:28:31.335Z,23.53
2022-10-22T10:30:40.872Z,23.53
2022-10-22T10:31:45.156Z,23.52
2022-10-22T10:32:49.547Z,23.51
2022-10-22T10:33:53.798Z,23.51
2022-10-22T10:34:58.107Z,23.49
2022-10-22T10:36:02.395Z,23.5
2022-10-22T10:37:06.645Z,23.51
2022-10-22T10:38:11.335Z,23.5
2022-10-22T10:39:15.590Z,23.5
2022-10-22T10:40:19.853Z,23.5
2022-10-22T10:41:24.138Z,23.48
2022-10-22T10:42:28.427Z,23.48
2022-10-22T10:43:32.734Z,23.47
2022-10-22T10:44:37.992Z,23.46
2022-10-22T10:45:44.500Z,23.45
2022-10-22T10:46:48.743Z,23.45
2022-10-22T10:47:52.971Z,23.43
2022-10-22T10:48:57.267Z,23.41
2022-10-22T10:50:01.547Z,23.42
2022-10-22T10:51:05.799Z,23.44
2022-10-22T10:52:10.086Z,23.46
2022-10-22T10:53:14.377Z,23.42
2022-10-22T10:54:18.666Z,23.42
2022-10-22T10:55:22.934Z,23.4
2022-10-22T10:56:27.173Z,23.41
2022-10-22T10:57:31.418Z,23.39
2022-10-22T10:58:35.699Z,23.4
2022-10-22T10:59:39.984Z,23.4
2022-10-22T11:00:44.241Z,23.4
2022-10-22T11:01:48.552Z,23.43
2022-10-22T11:02:53.024Z,23.43
2022-10-22T11:03:58.330Z,23.41
2022-10-22T11:05:02.592Z,23.4
2022-10-22T11:06:06.853Z,23.41
2022-10-22T11:07:16.820Z,23.39
2022-10-22T11:08:37.964Z,23.38
2022-10-22T11:09:42.535Z,23.37
2022-10-22T11:10:46.786Z,23.36
2022-10-22T11:11:51.335Z,23.35
2022-10-22T11:12:55.599Z,23.35
2022-10-22T11:14:02.151Z,23.35
2022-10-22T11:15:06.394Z,23.35
2022-10-22T11:16:10.759Z,23.33
2022-10-22T11:17:15.000Z,23.34
2022-10-22T11:18:19.338Z,23.32
2022-10-22T11:19:39.548Z,23.29
2022-10-22T11:21:02.146Z,23.27
2022-10-22T11:22:06.411Z,23.25
2022-10-22T11:23:19.258Z,23.28
2022-10-22T11:24:25.688Z,23.26
2022-10-22T11:25:29.963Z,23.25
2022-10-22T11:26:34.240Z,23.25
2022-10-22T11:27:38.745Z,23.25
2022-10-22T11:28:44.094Z,23.25
2022-10-22T11:29:48.378Z,23.27
2022-10-22T11:30:52.638Z,23.28
2022-10-22T11:31:56.897Z,23.29
2022-10-22T11:33:01.171Z,23.26
2022-10-22T11:34:21.702Z,23.27
2022-10-22T11:35:37.703Z,23.27
2022-10-22T11:36:41.966Z,23.29
2022-10-22T11:37:46.227Z,23.28
2022-10-22T11:38:50.535Z,23.26
2022-10-22T11:39:54.813Z,23.28
2022-10-22T11:40:59.108Z,23.26
2022-10-22T11:42:03.424Z,23.27
2022-10-22T11:43:07.672Z,23.24
2022-10-22T11:44:11.989Z,23.23
2022-10-22T11:45:16.279Z,23.23
2022-10-22T11:46:20.549Z,23.22
2022-10-22T11:47:24.848Z,23.23
2022-10-22T11:48:29.092Z,23.23
2022-10-22T11:49:33.374Z,23.23
2022-10-22T11:50:37.664Z,23.23
2022-10-22T11:51:41.937Z,23.22
2022-10-22T11:52:46.201Z,23.25
2022-10-22T11:53:50.464Z,23.27
2022-10-22T11:54:54.785Z,23.28
2022-10-22T11:55:59.120Z,23.29
2022-10-22T11:57:03.416Z,23.29
2022-10-22T11:58:07.692Z,23.31
2022-10-22T11:59:11.988Z,23.32
2022-10-22T12:00:16.273Z,23.31
2022-10-22T12:01:20.667Z,23.32
2022-10-22T12:02:25.043Z,23.31
2022-10-22T12:03:29.284Z,23.32
2022-10-22T12:04:33.618Z,23.34
2022-10-22T12:05:38.076Z,23.39
2022-10-22T12:06:42.358Z,23.39
2022-10-22T12:07:46.623Z,23.42
2022-10-22T12:08:51.005Z,23.43
2022-10-22T12:09:55.863Z,23.45
2022-10-22T12:11:00.408Z,23.46
2022-10-22T12:12:06.227Z,23.46
2022-10-22T12:13:11.712Z,23.45
2022-10-22T12:14:17.058Z,23.44
2022-10-22T12:15:24.479Z,23.43
2022-10-22T12:16:43.975Z,23.42
2022-10-22T12:18:02.138Z,23.35
2022-10-22T12:19:07.364Z,23.31
2022-10-22T12:20:14.755Z,23.26
2022-10-22T12:21:21.562Z,23.24
2022-10-22T12:22:26.861Z,23.23
2022-10-22T12:23:40.724Z,23.22
2022-10-22T12:24:48.390Z,23.21
2022-10-22T12:25:53.048Z,23.21
2022-10-22T12:26:57.324Z,23.18
2022-10-22T12:28:01.602Z,23.17
2022-10-22T12:29:05.868Z,23.17
2022-10-22T12:30:10.229Z,23.19
2022-10-22T12:31:14.472Z,23.24
2022-10-22T12:32:18.738Z,23.23
2022-10-22T12:33:22.984Z,23.25
2022-10-22T12:34:27.246Z,23.26
2022-10-22T12:35:31.571Z,23.25
2022-10-22T12:36:35.932Z,23.28
2022-10-22T12:37:40.591Z,23.26
2022-10-22T12:38:46.005Z,23.26
2022-10-22T12:39:50.379Z,23.24
2022-10-22T12:40:54.673Z,23.24
2022-10-22T12:41:58.926Z,23.27
2022-10-22T12:43:04.230Z,23.28
2022-10-22T12:44:08.836Z,23.28
2022-10-22T12:45:13.103Z,23.27
2022-10-22T12:46:17.345Z,23.26
2022-10-22T12:47:21.605Z,23.29
2022-10-22T12:48:25.842Z,23.3
2022-10-22T12:49:30.136Z,23.31
2022-10-22T12:50:34.392Z,23.32
2022-10-22T12:51:38.702Z,23.33
2022-10-22T12:52:43.182Z,23.34
2022-10-22T12:53:47.623Z,23.37
2022-10-22T12:54:51.886Z,23.38
2022-10-22T12:55:57.287Z,23.39
2022-10-22T12:57:01.815Z,23.39
2022-10-22T12:58:06.120Z,23.4
2022-10-22T12:59:10.378Z,23.4
2022-10-22T13:00:14.730Z,23.41
2022-10-22T13:01:19.098Z,23.44
2022-10-22T13:02:23.459Z,23.44
2022-10-22T13:03:28.264Z,23.42
2022-10-22T13:04:32.508Z,23.43
2022-10-22T13:05:36.819Z,23.44
2022-10-22T13:06:41.079Z,23.46
2022-10-22T13:07:45.368Z,23.47
2022-10-22T13:08:49.686Z,23.47
2022-10-22T13:09:54.092Z,23.46
2022-10-22T13:10:58.346Z,23.48
2022-10-22T13:12:02.595Z,23.52
2022-10-22T13:13:07.023Z,23.53
2022-10-22T13:14:11.294Z,23.57
2022-10-22T13:15:15.544Z,23.63
2022-10-22T13:16:19.803Z,23.65
2022-10-22T13:17:24.258Z,23.69
2022-10-22T13:18:28.527Z,23.7
2022-10-22T13:19:32.840Z,23.74
2022-10-22T13:20:37.080Z,23.76
2022-10-22T13:21:41.332Z,23.75
2022-10-22T13:22:45.614Z,23.75
2022-10-22T13:23:49.868Z,23.75
2022-10-22T13:24:54.157Z,23.77
2022-10-22T13:25:58.561Z,23.77
2022-10-22T13:27:02.810Z,23.77
2022-10-22T13:28:07.044Z,23.78
2022-10-22T13:29:11.297Z,23.78
2022-10-22T13:30:15.557Z,23.78
2022-10-22T13:31:19.864Z,23.77
2022-10-22T13:32:24.105Z,23.76
2022-10-22T13:33:28.414Z,23.76
2022-10-22T13:34:32.671Z,23.77
2022-10-22T13:35:36.952Z,23.77
2022-10-22T13:36:41.201Z,23.76
2022-10-22T13:37:45.502Z,23.75
2022-10-22T13:38:49.801Z,23.75
2022-10-22T13:39:54.196Z,23.73
2022-10-22T13:40:58.456Z,23.73
2022-10-22T13:42:02.737Z,23.72
2022-10-22T13:43:06.996Z,23.71
2022-10-22T13:44:11.291Z,23.7
2022-10-22T13:45:18.127Z,23.69
2022-10-22T13:46:22.400Z,23.68
2022-10-22T13:47:26.743Z,23.7
2022-10-22T13:48:31.059Z,23.72
2022-10-22T13:49:35.384Z,23.66
2022-10-22T13:50:39.689Z,23.67
2022-10-22T13:51:43.960Z,23.64
2022-10-22T13:52:48.230Z,23.62
2022-10-22T13:53:52.484Z,23.58
2022-10-22T13:54:56.747Z,23.56
2022-10-22T13:56:01.021Z,23.54
2022-10-22T13:57:05.295Z,23.53
2022-10-22T13:58:10.651Z,23.5
2022-10-22T13:59:16.194Z,23.47